Longmont, CO (80501)

6:26 AM MST on February 09, 2016 (GMT -0700)
Stoney Ridge | | Change Station
CLOSE
Current Station
Personal Weather Station
Location: Longmont, CO
Elevation: 5062 ft
Nearby Weather Stations

Elev 5062 ft 40.19 °N, 105.09 °W | Updated 13 seconds ago

Clear
Clear
19.8 °F
Feels Like 20 °F
N
1.1
Wind Variable Wind from ENE
Gusts 1.3 mph

Today
High -- | Low -- °F
--% Chance of Precip.
Yesterday
High -- | Low -- °F
Precip. -- in
Pressure 30.31 in
Visibility 10.0 miles
Clouds Clear
Windchill 20 °F
Dew Point 15 °F
Humidity 81%
Rainfall 0.00 in
Snow Depth Not available.
7:01 AM 5:28 PM
New Moon, 1% visible
METAR KLMO 091314Z AUTO 27003KT 10SM CLR M07/M10 A3031 RMK AO2 T10711099
Pressure 30.31 in
Visibility 10.0 miles
Clouds Clear
Windchill 20 °F
Dew Point 15 °F
Humidity 81%
Rainfall 0.00 in
Snow Depth Not available.
7:01 AM 5:28 PM
New Moon, 1% visible
METAR KLMO 091314Z AUTO 27003KT 10SM CLR M07/M10 A3031 RMK AO2 T10711099

10-Day Weather Forecast

Almanac

Astronomy

Feb. 09, 2016 Rise Set
Actual Time
Civil Twilight
Nautical Twilight
Astronomical Twilight
Moon
Length of Visible Light
Length of Day
Tomorrow will be .
, % of the Moon is Illuminated

Today's Extremes

State Highs State Lows

Community

WunderPhotos

Upload Photos

1,891,591 photos uploaded!

WunderBlog® & News

Nearby

Air Quality

  Air Quality AQ Index Pollutant
Not available.

Snow Depth

Station Depth Elevation

Earthquake Activity

City Distance Mag. Time & Date
Minimum magnitude displayed is 2.5.

Coastal Water Temperatures

Place Temperature

Stations

Nearby Weather Stations

Station Location Temp. Windchill Dew Point Humidity Wind Precip. Elev Updated Type
                   

Watches & Warnings

There are currently no watches in effect.